Time;durP1;ratioP1;P1;durP2;ratioP2;P2;SDS_P1;SDS_P2;PMS_P1;PMS_P2;Temp;Humidity;BMP_temperature;BMP_pressure;BME280_temperature;BME280_humidity;BME280_pressure;Samples;Min_cycle;Max_cycle;Signal;HPM_P1;HPM_P2
2021/04/25 00:02:04;;;;;;;17.25;8.63;;;2.50;83.10;;;;;;5054472;28;20056;-77
2021/04/25 00:04:30;;;;;;;16.40;8.40;;;2.40;83.60;;;;;;5054033;28;20032;-77
2021/04/25 00:06:56;;;;;;;14.63;7.15;;;2.50;82.80;;;;;;5055291;28;20021;-77
2021/04/25 00:09:21;;;;;;;14.05;7.03;;;2.50;82.50;;;;;;5055451;28;20446;-77
2021/04/25 00:11:48;;;;;;;12.98;7.13;;;2.50;82.40;;;;;;5055262;28;20055;-77
2021/04/25 00:14:14;;;;;;;14.43;6.65;;;2.50;82.90;;;;;;5053848;28;20481;-77
2021/04/25 00:16:40;;;;;;;13.13;7.00;;;2.60;82.50;;;;;;5055006;28;20172;-77
2021/04/25 00:19:05;;;;;;;9.95;6.07;;;2.50;83.20;;;;;;5053536;28;20088;-77
2021/04/25 00:21:32;;;;;;;10.38;6.22;;;2.50;82.60;;;;;;5053679;28;20060;-77
2021/04/25 00:23:58;;;;;;;12.18;6.30;;;2.50;82.60;;;;;;5053841;28;20478;-77
2021/04/25 00:26:24;;;;;;;11.27;6.60;;;2.40;83.10;;;;;;5053674;28;20021;-77
2021/04/25 00:28:50;;;;;;;12.70;7.50;;;2.40;84.10;;;;;;5053504;28;20021;-77
2021/04/25 00:31:17;;;;;;;16.40;7.70;;;2.30;84.90;;;;;;5052712;28;20040;-77
2021/04/25 00:33:43;;;;;;;15.00;7.78;;;2.20;85.30;;;;;;5054462;28;20060;-77
2021/04/25 00:36:09;;;;;;;17.73;9.02;;;2.10;85.60;;;;;;5052905;28;20059;-77
2021/04/25 00:38:34;;;;;;;16.33;8.60;;;2.00;85.20;;;;;;5052881;28;20132;-77
2021/04/25 00:41:00;;;;;;;20.35;9.90;;;1.90;85.90;;;;;;5052584;28;20021;-77
2021/04/25 00:43:26;;;;;;;19.83;10.32;;;1.80;86.30;;;;;;5053958;28;20099;-77
2021/04/25 00:45:51;;;;;;;20.58;10.80;;;1.70;86.80;;;;;;5053989;28;20386;-77
2021/04/25 00:48:17;;;;;;;16.88;10.02;;;1.60;86.90;;;;;;5053844;28;20028;-77
2021/04/25 00:50:43;;;;;;;15.90;8.50;;;1.60;87.20;;;;;;5069038;28;20040;-77
2021/04/25 00:53:09;;;;;;;13.40;7.95;;;1.50;86.70;;;;;;5053975;28;20032;-77
2021/04/25 00:55:35;;;;;;;13.35;7.35;;;1.50;86.80;;;;;;5052551;28;20684;-77
2021/04/25 00:58:03;;;;;;;10.50;6.53;;;1.40;86.80;;;;;;5052485;28;20796;-77
2021/04/25 01:00:30;;;;;;;10.43;6.05;;;1.40;86.60;;;;;;5052354;28;20127;-77
2021/04/25 01:02:56;;;;;;;9.90;5.75;;;1.40;86.70;;;;;;5052350;28;20831;-77
2021/04/25 01:05:22;;;;;;;11.63;5.70;;;1.40;86.80;;;;;;5052424;28;20112;-77
2021/04/25 01:07:48;;;;;;;11.30;5.90;;;1.30;87.50;;;;;;5052598;28;20017;-77
2021/04/25 01:10:15;;;;;;;8.52;5.55;;;1.20;88.00;;;;;;5053704;28;20032;-77
2021/04/25 01:12:42;;;;;;;9.02;5.50;;;1.10;88.40;;;;;;5053623;28;20049;-77
2021/04/25 01:15:10;;;;;;;9.60;5.55;;;1.10;88.30;;;;;;5051560;28;20382;-77
2021/04/25 01:17:39;;;;;;;10.75;5.30;;;1.00;88.40;;;;;;5053387;28;20100;-77
2021/04/25 01:20:06;;;;;;;8.50;5.25;;;0.90;88.90;;;;;;5052021;28;20069;-77
2021/04/25 01:22:32;;;;;;;9.45;5.32;;;0.90;89.60;;;;;;5052339;28;20036;-77
2021/04/25 01:24:58;;;;;;;10.07;5.40;;;0.80;89.50;;;;;;5053432;28;20029;-77
2021/04/25 01:27:24;;;;;;;8.77;5.03;;;0.80;89.10;;;;;;5052222;28;20028;-77
2021/04/25 01:29:49;;;;;;;10.70;5.93;;;0.70;89.10;;;;;;5053437;28;20028;-77
2021/04/25 01:32:15;;;;;;;13.15;6.90;;;0.70;89.70;;;;;;5052430;28;20053;-77
2021/04/25 01:34:41;;;;;;;14.77;7.70;;;0.70;90.00;;;;;;5052348;28;20025;-77
2021/04/25 01:37:07;;;;;;;13.27;7.22;;;0.60;90.30;;;;;;5052457;28;20033;-77
2021/04/25 01:39:33;;;;;;;14.23;7.07;;;0.60;90.20;;;;;;5052954;28;20453;-78
2021/04/25 01:41:58;;;;;;;13.60;7.10;;;0.60;89.80;;;;;;5052438;28;20033;-77
2021/04/25 01:44:25;;;;;;;14.52;7.60;;;0.60;89.60;;;;;;5052281;28;20653;-77
2021/04/25 01:46:51;;;;;;;14.52;6.93;;;0.60;90.50;;;;;;5052952;28;20033;-77
2021/04/25 01:49:17;;;;;;;12.95;6.18;;;0.50;90.30;;;;;;5052262;28;20463;-77
2021/04/25 01:51:43;;;;;;;9.82;5.45;;;0.50;90.40;;;;;;5052314;28;20036;-77
2021/04/25 01:54:10;;;;;;;11.70;5.65;;;0.50;90.00;;;;;;5052173;28;20060;-77
2021/04/25 01:56:36;;;;;;;9.57;5.47;;;0.50;90.00;;;;;;5053605;28;20033;-77
2021/04/25 01:59:02;;;;;;;8.88;5.00;;;0.50;90.10;;;;;;5053544;28;20048;-77
2021/04/25 02:01:28;;;;;;;13.60;5.90;;;0.50;90.30;;;;;;5052265;28;20029;-77
2021/04/25 02:03:54;;;;;;;13.82;6.50;;;0.40;90.50;;;;;;5053700;28;20032;-78
2021/04/25 02:06:20;;;;;;;15.25;7.50;;;0.40;90.60;;;;;;5052213;28;20070;-78
2021/04/25 02:08:46;;;;;;;16.52;7.50;;;0.40;90.40;;;;;;5053332;28;20033;-77
2021/04/25 02:11:12;;;;;;;17.98;7.80;;;0.40;90.40;;;;;;5052034;28;20033;-78
2021/04/25 02:13:38;;;;;;;14.13;6.85;;;0.50;90.00;;;;;;5053361;28;20112;-78
2021/04/25 02:16:05;;;;;;;18.73;7.65;;;0.60;89.60;;;;;;5051968;28;20053;-78
2021/04/25 02:18:31;;;;;;;14.20;7.20;;;0.70;90.10;;;;;;5051892;28;20064;-78
2021/04/25 02:20:57;;;;;;;15.13;7.40;;;0.70;90.10;;;;;;5051766;28;20033;-78
2021/04/25 02:23:23;;;;;;;20.58;8.75;;;0.70;90.10;;;;;;5051857;28;20021;-77
2021/04/25 02:25:48;;;;;;;17.80;8.70;;;0.70;90.30;;;;;;5054785;28;20076;-77
2021/04/25 02:28:14;;;;;;;16.23;9.20;;;0.80;89.80;;;;;;5055829;28;20120;-77
2021/04/25 02:30:41;;;;;;;21.58;9.45;;;0.80;90.20;;;;;;5055543;28;20024;-77
2021/04/25 02:33:08;;;;;;;15.95;8.95;;;0.80;90.30;;;;;;5056789;28;20028;-78
2021/04/25 02:35:34;;;;;;;18.10;9.23;;;0.80;90.30;;;;;;5055242;28;20028;-77
2021/04/25 02:38:01;;;;;;;21.27;10.38;;;0.80;90.00;;;;;;5055302;28;20021;-77
2021/04/25 02:40:29;;;;;;;19.98;10.43;;;0.80;90.30;;;;;;5056431;28;20056;-77
2021/04/25 02:42:56;;;;;;;18.42;10.82;;;0.80;90.20;;;;;;5056535;28;20067;-78
2021/04/25 02:45:24;;;;;;;23.83;11.60;;;0.80;90.40;;;;;;5071873;28;20021;-78
2021/04/25 02:47:52;;;;;;;24.08;12.63;;;0.80;90.30;;;;;;5055134;28;20021;-78
2021/04/25 02:50:20;;;;;;;27.02;13.93;;;0.80;90.40;;;;;;5055131;28;20538;-77
2021/04/25 02:52:46;;;;;;;22.63;11.75;;;0.80;90.80;;;;;;5054908;28;20029;-77
2021/04/25 02:55:12;;;;;;;25.13;12.10;;;0.70;90.50;;;;;;5054736;28;20048;-78
2021/04/25 02:57:39;;;;;;;22.95;12.45;;;0.70;90.60;;;;;;5056282;28;20249;-78
2021/04/25 03:00:08;;;;;;;23.88;12.18;;;0.60;90.90;;;;;;5055978;28;20021;-78
2021/04/25 03:02:34;;;;;;;20.23;11.60;;;0.70;90.80;;;;;;5054854;28;20029;-77
2021/04/25 03:05:00;;;;;;;22.95;11.30;;;0.70;90.90;;;;;;5054655;28;20047;-77
2021/04/25 03:07:25;;;;;;;19.35;11.35;;;0.70;90.70;;;;;;5054561;28;20188;-78
2021/04/25 03:09:51;;;;;;;28.00;10.95;;;0.70;91.00;;;;;;5054588;28;20029;-78
2021/04/25 03:12:17;;;;;;;22.00;11.05;;;0.80;90.90;;;;;;5054305;28;20025;-78
2021/04/25 03:14:42;;;;;;;19.70;11.48;;;0.80;90.90;;;;;;5054366;28;20049;-78
2021/04/25 03:17:08;;;;;;;20.55;11.75;;;0.80;90.90;;;;;;5054424;28;20051;-78
2021/04/25 03:19:33;;;;;;;21.33;12.30;;;0.90;90.80;;;;;;5054250;28;20499;-78
2021/04/25 03:21:59;;;;;;;21.67;11.43;;;1.00;90.80;;;;;;5055556;28;20352;-77
2021/04/25 03:25:32;;;;;;;15.20;9.18;;;1.00;90.60;;;;;;5090837;27;20371;-78
2021/04/25 03:27:57;;;;;;;22.10;10.95;;;1.10;90.60;;;;;;5089768;28;20032;-78
2021/04/25 03:30:23;;;;;;;17.85;10.48;;;1.10;90.60;;;;;;5089893;28;20035;-78
2021/04/25 03:32:49;;;;;;;17.67;10.63;;;1.10;90.60;;;;;;5089324;28;20013;-78
2021/04/25 03:35:17;;;;;;;15.52;9.75;;;1.20;90.50;;;;;;5089632;28;20064;-78
2021/04/25 03:37:44;;;;;;;14.32;9.48;;;1.20;90.40;;;;;;5089517;28;20060;-78
2021/04/25 03:40:12;;;;;;;17.02;10.27;;;1.30;90.30;;;;;;5089454;28;20074;-78
2021/04/25 03:42:38;;;;;;;18.10;10.70;;;1.40;90.10;;;;;;5089579;28;20021;-78
2021/04/25 03:45:06;;;;;;;21.20;12.25;;;1.50;90.10;;;;;;5091266;28;20028;-78
2021/04/25 03:47:32;;;;;;;18.90;11.90;;;1.60;90.20;;;;;;5091085;28;20519;-78
2021/04/25 03:49:57;;;;;;;20.95;11.68;;;1.60;90.00;;;;;;5090617;28;20032;-78
2021/04/25 03:52:23;;;;;;;16.42;9.98;;;1.70;90.10;;;;;;5089282;28;20166;-78
2021/04/25 03:54:49;;;;;;;17.75;9.75;;;1.80;89.60;;;;;;5089695;28;20028;-78
2021/04/25 03:57:14;;;;;;;16.60;9.82;;;1.80;89.30;;;;;;5089348;28;20028;-78
2021/04/25 03:59:40;;;;;;;18.75;10.35;;;1.90;89.00;;;;;;5089225;28;20028;-78
2021/04/25 04:02:05;;;;;;;15.93;9.88;;;1.90;88.80;;;;;;5090447;28;20094;-78
2021/04/25 04:04:31;;;;;;;18.90;10.23;;;2.00;88.60;;;;;;5089046;28;20024;-78
2021/04/25 04:06:57;;;;;;;21.02;10.27;;;2.00;88.50;;;;;;5089023;28;20073;-78
2021/04/25 04:09:23;;;;;;;19.25;11.98;;;2.10;88.10;;;;;;5090305;28;20029;-78
2021/04/25 04:11:48;;;;;;;17.55;10.65;;;2.20;88.10;;;;;;5088899;28;20024;-79
2021/04/25 04:14:14;;;;;;;17.10;10.32;;;2.30;88.00;;;;;;5089007;28;20028;-78
2021/04/25 04:16:40;;;;;;;15.95;10.13;;;2.30;87.80;;;;;;5088901;28;20028;-78
2021/04/25 04:19:06;;;;;;;18.15;10.68;;;2.50;87.80;;;;;;5089455;28;20025;-78
2021/04/25 04:21:33;;;;;;;18.00;10.38;;;2.60;87.50;;;;;;5088349;28;20393;-78
2021/04/25 04:23:59;;;;;;;14.02;9.00;;;2.70;86.90;;;;;;5105649;28;20044;-78
2021/04/25 04:26:25;;;;;;;22.92;10.27;;;2.90;86.40;;;;;;5095521;28;20020;-78
2021/04/25 04:28:51;;;;;;;13.95;8.52;;;3.10;86.00;;;;;;5090088;28;20455;-78
2021/04/25 04:31:16;;;;;;;16.90;8.70;;;3.40;85.20;;;;;;5088018;28;20381;-78
2021/04/25 04:33:42;;;;;;;14.07;8.68;;;3.50;84.60;;;;;;5088021;28;20039;-81
2021/04/25 04:36:08;;;;;;;15.73;8.43;;;3.70;84.10;;;;;;5078910;28;20021;-78
2021/04/25 04:38:34;;;;;;;18.38;11.43;;;3.80;83.80;;;;;;5074203;28;20025;-78
2021/04/25 04:41:00;;;;;;;15.07;9.95;;;3.80;83.40;;;;;;5075299;28;20099;-78
2021/04/25 04:43:26;;;;;;;14.63;9.30;;;3.80;83.70;;;;;;5075026;28;20108;-78
2021/04/25 04:45:54;;;;;;;18.65;11.63;;;3.90;83.70;;;;;;5075300;28;20446;-78
2021/04/25 04:48:20;;;;;;;15.35;9.40;;;4.00;83.50;;;;;;5073359;28;20020;-76
2021/04/25 04:50:46;;;;;;;16.15;8.95;;;4.10;83.70;;;;;;5074413;28;20036;-73
2021/04/25 04:53:12;;;;;;;15.07;9.45;;;4.30;83.60;;;;;;5072885;28;20052;-73
2021/04/25 04:55:38;;;;;;;18.13;11.40;;;4.50;83.10;;;;;;5074077;28;20063;-73
2021/04/25 04:58:04;;;;;;;17.48;9.88;;;4.80;82.60;;;;;;5073339;28;20037;-73
2021/04/25 05:00:30;;;;;;;18.35;10.40;;;5.00;82.70;;;;;;5074460;28;20051;-73
2021/04/25 05:02:55;;;;;;;16.58;9.65;;;5.30;82.10;;;;;;5072369;28;20024;-73
2021/04/25 05:05:21;;;;;;;17.50;10.77;;;5.40;81.40;;;;;;5072951;28;20032;-76
2021/04/25 05:07:47;;;;;;;17.77;10.60;;;5.50;81.10;;;;;;5073104;28;20459;-76
2021/04/25 05:10:12;;;;;;;16.52;10.10;;;5.60;81.40;;;;;;5072720;28;20431;-76
2021/04/25 05:12:38;;;;;;;19.38;10.82;;;5.70;81.00;;;;;;5074495;28;20032;-76
2021/04/25 05:15:06;;;;;;;19.45;11.27;;;5.70;80.30;;;;;;5074594;28;20102;-76
2021/04/25 05:17:32;;;;;;;20.52;10.25;;;5.80;80.10;;;;;;5074743;28;20028;-76
2021/04/25 05:19:57;;;;;;;15.55;9.65;;;5.90;80.30;;;;;;5073400;28;20463;-77
2021/04/25 05:22:23;;;;;;;17.25;8.52;;;6.00;79.50;;;;;;5072983;28;20112;-77
2021/04/25 05:24:49;;;;;;;12.20;8.35;;;6.10;79.10;;;;;;5072610;28;20547;-77
2021/04/25 05:27:15;;;;;;;8.68;5.57;;;6.30;78.40;;;;;;5073055;28;20503;-77
2021/04/25 05:29:40;;;;;;;8.90;6.00;;;6.40;77.30;;;;;;5073305;28;20023;-77
2021/04/25 05:32:06;;;;;;;8.70;5.40;;;6.50;77.10;;;;;;5074646;28;20501;-76
2021/04/25 05:34:32;;;;;;;8.00;5.13;;;6.60;76.70;;;;;;5074537;28;20028;-77
2021/04/25 05:36:58;;;;;;;12.80;7.00;;;6.60;76.20;;;;;;5073227;28;20044;-77
2021/04/25 05:39:23;;;;;;;9.27;5.53;;;6.70;76.20;;;;;;5073688;28;20021;-77
2021/04/25 05:41:49;;;;;;;8.35;5.10;;;6.60;75.50;;;;;;5073103;28;20068;-77
2021/04/25 05:44:15;;;;;;;12.85;6.13;;;6.70;76.10;;;;;;5073022;28;20039;-77
2021/04/25 05:46:41;;;;;;;10.93;4.75;;;6.80;76.10;;;;;;5072566;28;20024;-77
2021/04/25 05:49:06;;;;;;;7.50;4.95;;;6.90;76.00;;;;;;5072942;28;20027;-77
2021/04/25 05:51:32;;;;;;;7.30;4.53;;;7.00;75.20;;;;;;5074887;28;20088;-76
2021/04/25 05:53:58;;;;;;;8.68;5.22;;;7.20;74.50;;;;;;5074593;28;20025;-77
2021/04/25 05:56:24;;;;;;;17.90;9.30;;;7.40;72.90;;;;;;5072986;28;20052;-77
2021/04/25 05:58:50;;;;;;;14.00;9.13;;;7.70;72.60;;;;;;5073824;28;20051;-77
2021/04/25 06:01:16;;;;;;;13.15;6.38;;;8.10;70.80;;;;;;5072566;28;20035;-77
2021/04/25 06:03:42;;;;;;;9.70;5.22;;;8.40;68.30;;;;;;5072392;28;20020;-78
2021/04/25 06:06:08;;;;;;;11.25;5.32;;;8.70;68.90;;;;;;5072274;28;20074;-76
2021/04/25 06:08:33;;;;;;;6.55;4.72;;;8.80;68.00;;;;;;5072710;28;20020;-77
2021/04/25 06:10:59;;;;;;;7.55;4.18;;;8.90;67.40;;;;;;5071479;28;20021;-77
2021/04/25 06:13:25;;;;;;;7.85;3.75;;;8.80;66.70;;;;;;5086069;28;20389;-76
2021/04/25 06:15:51;;;;;;;10.43;4.72;;;8.80;66.50;;;;;;5093263;28;20439;-76
2021/04/25 06:18:17;;;;;;;5.57;3.60;;;8.80;65.80;;;;;;5078402;28;20017;-76
2021/04/25 06:20:42;;;;;;;5.93;3.60;;;8.80;66.10;;;;;;5072153;28;20031;-77
2021/04/25 06:23:09;;;;;;;7.97;4.30;;;8.90;66.10;;;;;;5071717;28;20038;-77
2021/04/25 06:25:35;;;;;;;5.13;3.92;;;8.80;65.90;;;;;;5071866;28;20036;-84
2021/04/25 06:28:00;;;;;;;29.38;9.40;;;9.00;66.30;;;;;;5073658;28;20031;-84
2021/04/25 06:30:28;;;;;;;7.82;4.32;;;9.20;66.70;;;;;;5073975;28;20021;-84
2021/04/25 06:32:54;;;;;;;14.30;5.47;;;9.50;63.90;;;;;;5068717;28;20031;-76
2021/04/25 06:35:20;;;;;;;7.15;4.00;;;9.70;61.60;;;;;;5071898;28;20033;-77
2021/04/25 06:37:47;;;;;;;7.00;3.80;;;9.60;62.40;;;;;;5071599;28;20056;-77
2021/04/25 06:40:14;;;;;;;6.80;4.30;;;9.60;63.60;;;;;;5073028;28;20024;-77
2021/04/25 06:42:40;;;;;;;7.35;5.00;;;9.70;63.90;;;;;;5069162;28;20478;-78
2021/04/25 06:45:24;;;;;;;31.92;9.43;;;9.70;63.70;;;;;;5071642;28;20748;-82
2021/04/25 06:47:50;;;;;;;27.73;12.75;;;9.90;63.30;;;;;;5071894;28;20107;-83
2021/04/25 06:50:16;;;;;;;12.05;7.07;;;9.90;62.70;;;;;;5073056;28;20095;-82
2021/04/25 06:52:44;;;;;;;7.72;5.25;;;10.00;62.90;;;;;;5071503;28;20025;-82
2021/04/25 06:55:14;;;;;;;31.10;15.32;;;10.00;61.60;;;;;;5070974;28;20025;-76
2021/04/25 06:57:40;;;;;;;11.50;7.00;;;10.10;61.00;;;;;;5071510;28;20067;-77
2021/04/25 07:00:06;;;;;;;17.60;9.80;;;10.20;61.10;;;;;;5072471;28;20060;-78
2021/04/25 07:02:32;;;;;;;16.08;8.77;;;10.30;60.70;;;;;;5071441;28;20052;-77
2021/04/25 07:04:58;;;;;;;8.57;5.20;;;10.30;60.60;;;;;;5071509;28;20056;-78
2021/04/25 07:07:24;;;;;;;9.75;4.22;;;10.40;60.10;;;;;;5072570;28;20058;-78
2021/04/25 07:09:49;;;;;;;8.88;5.78;;;10.50;59.00;;;;;;5071325;28;20061;-77
2021/04/25 07:12:15;;;;;;;27.58;15.07;;;10.40;58.80;;;;;;5071283;28;20020;-80
2021/04/25 07:14:41;;;;;;;16.13;10.05;;;10.40;58.00;;;;;;5071479;28;20489;-78
2021/04/25 07:17:06;;;;;;;17.58;7.50;;;10.50;57.50;;;;;;5071473;28;20056;-78
2021/04/25 07:19:32;;;;;;;8.10;5.53;;;10.60;58.80;;;;;;5071079;28;20044;-79
2021/04/25 07:21:58;;;;;;;7.05;4.60;;;10.70;58.60;;;;;;5071499;28;20085;-81
2021/04/25 07:24:24;;;;;;;11.13;6.32;;;11.00;56.80;;;;;;5071043;28;20053;-81
2021/04/25 07:26:51;;;;;;;9.40;5.03;;;11.20;58.00;;;;;;5071518;28;20035;-81
2021/04/25 07:29:18;;;;;;;6.63;4.40;;;11.50;56.80;;;;;;5071708;28;20026;-81
2021/04/25 07:31:43;;;;;;;6.50;4.55;;;11.70;56.30;;;;;;5070770;28;20024;-81
2021/04/25 07:34:09;;;;;;;12.25;6.40;;;11.80;54.90;;;;;;5072915;28;20078;-82
2021/04/25 07:36:35;;;;;;;6.95;4.40;;;11.90;54.10;;;;;;5070336;28;20107;-80
2021/04/25 07:39:02;;;;;;;5.60;3.80;;;11.80;52.90;;;;;;5070413;28;20115;-71
2021/04/25 07:41:28;;;;;;;6.55;3.80;;;11.70;51.90;;;;;;5069619;28;20017;-77
2021/04/25 07:43:54;;;;;;;8.52;5.43;;;11.50;52.80;;;;;;5071468;28;20047;-77
2021/04/25 07:46:20;;;;;;;7.35;4.95;;;11.40;53.70;;;;;;5072662;28;20031;-78
2021/04/25 07:48:46;;;;;;;6.70;4.10;;;11.50;55.10;;;;;;5071131;28;20054;-77
2021/04/25 07:51:12;;;;;;;7.07;3.78;;;11.70;53.90;;;;;;5071105;28;20038;-79
2021/04/25 07:53:38;;;;;;;9.60;4.43;;;11.90;53.20;;;;;;5072226;28;20068;-78
2021/04/25 07:56:04;;;;;;;7.78;4.40;;;12.10;51.80;;;;;;5071380;28;20066;-85
2021/04/25 07:58:30;;;;;;;8.48;4.60;;;12.30;52.20;;;;;;5072638;28;20032;-84
2021/04/25 08:00:56;;;;;;;8.52;5.03;;;12.40;51.10;;;;;;5072356;28;20028;-83
2021/04/25 08:03:21;;;;;;;12.95;6.45;;;12.40;50.50;;;;;;5071216;28;20390;-84
2021/04/25 08:05:47;;;;;;;6.63;4.75;;;12.30;50.50;;;;;;5070990;28;20017;-84
2021/04/25 08:08:13;;;;;;;8.82;5.90;;;12.20;50.70;;;;;;5072479;28;20047;-82
2021/04/25 08:10:38;;;;;;;9.20;5.45;;;12.10;51.00;;;;;;5071715;28;20025;-81
2021/04/25 08:13:04;;;;;;;8.10;5.63;;;12.00;51.60;;;;;;5076420;28;20351;-80
2021/04/25 08:15:30;;;;;;;8.05;5.30;;;12.10;51.20;;;;;;5075494;28;20026;-85
2021/04/25 08:17:56;;;;;;;7.57;6.03;;;12.10;50.90;;;;;;5074876;28;20465;-81
2021/04/25 08:20:23;;;;;;;8.70;4.28;;;12.20;51.40;;;;;;5074309;28;20029;-80
2021/04/25 08:22:49;;;;;;;7.35;5.70;;;12.30;52.00;;;;;;5074715;28;20035;-82
2021/04/25 08:25:16;;;;;;;6.25;4.75;;;12.40;51.10;;;;;;5074436;28;20486;-78
2021/04/25 08:27:42;;;;;;;8.00;3.88;;;12.50;50.60;;;;;;5074554;28;20025;-86
2021/04/25 08:30:09;;;;;;;5.47;3.67;;;12.50;49.40;;;;;;5075239;28;20103;-77
2021/04/25 08:32:35;;;;;;;5.97;4.03;;;12.50;48.50;;;;;;5074735;28;20035;-77
2021/04/25 08:35:01;;;;;;;6.40;4.00;;;12.50;48.80;;;;;;5074852;28;20024;-80
2021/04/25 08:37:27;;;;;;;55.50;21.73;;;12.50;48.10;;;;;;5075048;28;20025;-83
2021/04/25 08:39:52;;;;;;;10.50;4.80;;;12.50;47.70;;;;;;5075999;28;20415;-82
2021/04/25 08:42:18;;;;;;;5.97;4.10;;;12.40;48.10;;;;;;5075997;28;20029;-84
2021/04/25 08:44:45;;;;;;;8.38;4.20;;;12.40;48.60;;;;;;5074576;28;20093;-85
2021/04/25 08:47:14;;;;;;;6.93;4.30;;;12.30;48.80;;;;;;5074657;28;20051;-84
2021/04/25 08:49:42;;;;;;;7.07;3.93;;;12.30;48.70;;;;;;5076279;28;20044;-82
2021/04/25 08:52:10;;;;;;;12.05;5.45;;;12.30;50.10;;;;;;5074282;28;20024;-84
2021/04/25 08:54:35;;;;;;;9.57;5.80;;;12.40;49.10;;;;;;5074122;28;20025;-79
2021/04/25 08:57:01;;;;;;;12.18;8.15;;;12.50;49.10;;;;;;5075707;28;20434;-84
2021/04/25 08:59:27;;;;;;;9.02;4.82;;;12.70;49.20;;;;;;5074425;28;20025;-83
2021/04/25 09:01:53;;;;;;;6.93;4.30;;;12.90;48.60;;;;;;5075742;28;20033;-82
2021/04/25 09:04:18;;;;;;;8.18;5.70;;;13.00;47.70;;;;;;5075795;28;20035;-84
2021/04/25 09:07:05;;;;;;;6.97;4.22;;;13.00;48.20;;;;;;5074702;28;20051;-87
2021/04/25 09:09:45;;;;;;;7.72;4.28;;;13.10;48.00;;;;;;5068777;28;20021;-85
2021/04/25 09:12:15;;;;;;;5.95;4.18;;;13.00;47.90;;;;;;5074175;28;20028;-82
2021/04/25 09:14:41;;;;;;;17.35;9.50;;;13.00;47.20;;;;;;5074013;28;20025;-80
2021/04/25 09:17:08;;;;;;;5.32;3.75;;;13.10;47.10;;;;;;5075089;28;20099;-83
2021/04/25 09:19:49;;;;;;;6.32;4.40;;;13.20;47.20;;;;;;5073679;28;20393;-78
2021/04/25 09:22:16;;;;;;;5.97;4.20;;;13.30;47.80;;;;;;5073444;28;20028;-77
2021/04/25 09:24:42;;;;;;;9.00;4.50;;;13.40;47.40;;;;;;5076359;28;20052;-77
2021/04/25 09:27:08;;;;;;;13.02;6.55;;;13.40;47.40;;;;;;5073730;28;20047;-82
2021/04/25 09:30:00;;;;;;;10.50;6.50;;;13.30;47.60;;;;;;5073873;28;20119;-81
2021/04/25 09:32:29;;;;;;;8.77;5.55;;;13.20;48.20;;;;;;5072444;28;20036;-78
2021/04/25 09:35:15;;;;;;;22.60;11.27;;;13.10;47.60;;;;;;5073180;28;20539;-78
2021/04/25 09:37:46;;;;;;;9.00;4.97;;;12.90;48.00;;;;;;5074682;28;20082;-76
2021/04/25 09:40:13;;;;;;;11.10;5.45;;;12.80;48.20;;;;;;5069598;28;20097;-76
2021/04/25 09:42:55;;;;;;;6.93;4.65;;;12.90;49.10;;;;;;5072587;28;20371;-73
2021/04/25 09:45:44;;;;;;;23.48;9.98;;;13.10;49.10;;;;;;5074226;28;20521;-74
2021/04/25 09:48:32;;;;;;;7.25;5.15;;;13.20;47.70;;;;;;5072791;28;20028;-75
2021/04/25 09:51:21;;;;;;;9.48;4.75;;;13.20;47.50;;;;;;5072400;28;20024;-75
2021/04/25 09:53:50;;;;;;;38.28;21.02;;;13.20;47.50;;;;;;5073393;28;20025;-76
2021/04/25 09:56:21;;;;;;;13.00;6.60;;;13.20;48.10;;;;;;5070717;28;20037;-75
2021/04/25 09:58:56;;;;;;;5.35;4.18;;;13.30;48.30;;;;;;5073047;28;20032;-78
2021/04/25 10:01:39;;;;;;;6.18;4.30;;;13.50;47.90;;;;;;5074089;28;20103;-79
2021/04/25 10:04:26;;;;;;;11.27;5.50;;;13.50;47.00;;;;;;5072574;28;20024;-76
2021/04/25 10:06:54;;;;;;;5.78;4.30;;;13.40;47.50;;;;;;5073045;28;20021;-80
2021/04/25 10:09:20;;;;;;;9.93;4.90;;;13.50;46.90;;;;;;5073117;28;20063;-77
2021/04/25 10:11:51;;;;;;;6.93;4.88;;;13.60;46.40;;;;;;5074115;28;20013;-76
2021/04/25 10:14:17;;;;;;;5.70;4.18;;;13.60;46.10;;;;;;5072305;28;20702;-76
2021/04/25 10:16:43;;;;;;;5.63;4.22;;;13.60;45.60;;;;;;5072637;28;20031;-76
2021/04/25 10:19:10;;;;;;;7.80;4.40;;;13.50;45.80;;;;;;5072508;28;20024;-76
2021/04/25 10:21:40;;;;;;;5.78;4.07;;;13.40;46.00;;;;;;5072566;28;20033;-78
2021/04/25 10:24:07;;;;;;;10.07;4.82;;;13.30;46.50;;;;;;5072113;28;20092;-76
2021/04/25 10:26:37;;;;;;;7.07;4.60;;;13.40;46.90;;;;;;5072226;28;20107;-76
2021/04/25 10:29:06;;;;;;;6.57;4.50;;;13.50;46.00;;;;;;5072330;28;20017;-82
2021/04/25 10:31:36;;;;;;;9.60;5.15;;;13.40;46.90;;;;;;5074064;28;20280;-75
2021/04/25 10:34:07;;;;;;;8.98;5.35;;;13.50;45.70;;;;;;5071927;28;20035;-74
2021/04/25 10:36:45;;;;;;;6.53;4.40;;;13.40;46.40;;;;;;5072324;28;20028;-77
2021/04/25 10:39:32;;;;;;;7.60;4.53;;;13.50;46.70;;;;;;5073229;28;20024;-76
2021/04/25 10:45:02;;;;;;;8.52;4.38;;;13.70;46.00;;;;;;5073395;28;20033;-74
2021/04/25 10:47:34;;;;;;;7.10;4.10;;;13.70;46.30;;;;;;5072370;28;20538;-74
2021/04/25 10:50:20;;;;;;;13.90;6.45;;;13.80;45.40;;;;;;5072143;28;20364;-73
2021/04/25 10:52:47;;;;;;;11.02;5.68;;;13.90;45.70;;;;;;5072166;28;20048;-76
2021/04/25 10:55:14;;;;;;;7.93;4.63;;;14.00;45.20;;;;;;5072249;28;20115;-73
2021/04/25 10:57:55;;;;;;;6.35;4.40;;;14.00;45.60;;;;;;5071855;28;20036;-74
2021/04/25 11:00:33;;;;;;;8.75;5.07;;;14.20;45.00;;;;;;5071823;28;20032;-73
2021/04/25 11:03:03;;;;;;;7.20;4.22;;;14.30;45.00;;;;;;5071919;28;20024;-74
2021/04/25 11:05:41;;;;;;;5.93;4.20;;;14.30;45.70;;;;;;5073109;28;20074;-74
2021/04/25 11:08:12;;;;;;;7.95;4.22;;;14.40;45.30;;;;;;5073005;28;20100;-75
2021/04/25 11:10:58;;;;;;;7.32;4.18;;;14.40;44.90;;;;;;5072461;28;20024;-73
2021/04/25 11:16:04;;;;;;;;;;;14.40;44.50;;;;;;5073953;28;20123;-74
2021/04/25 11:18:50;;;;;;;6.68;3.80;;;14.30;44.40;;;;;;5072340;28;20002;-74
2021/04/25 11:21:45;;;;;;;5.75;3.35;;;14.30;44.50;;;;;;5073479;28;20017;-73
2021/04/25 11:24:10;;;;;;;6.30;4.28;;;14.30;44.70;;;;;;5071673;28;20083;-73
2021/04/25 11:26:36;;;;;;;5.10;3.60;;;14.30;44.20;;;;;;5073396;28;20433;-74
2021/04/25 11:29:06;;;;;;;6.22;3.90;;;14.30;44.50;;;;;;5073270;28;20020;-74
2021/04/25 11:31:45;;;;;;;6.50;4.00;;;14.20;44.30;;;;;;5071216;28;20021;-74
2021/04/25 11:34:35;;;;;;;6.63;4.40;;;14.40;44.90;;;;;;5071793;28;20048;-73
2021/04/25 11:37:06;;;;;;;6.43;4.90;;;14.50;44.80;;;;;;5072250;28;20036;-73
2021/04/25 11:39:33;;;;;;;7.20;4.78;;;14.70;44.60;;;;;;5072117;28;20040;-74
2021/04/25 11:42:00;;;;;;;6.45;4.10;;;14.70;43.70;;;;;;5072159;28;20069;-73
2021/04/25 11:44:29;;;;;;;8.35;5.63;;;14.90;43.70;;;;;;5070063;28;20028;-73
2021/04/25 11:46:55;;;;;;;9.10;6.25;;;14.90;43.40;;;;;;5074960;28;20024;-73
2021/04/25 11:49:37;;;;;;;11.98;7.80;;;14.90;42.90;;;;;;5075029;28;20552;-74
2021/04/25 11:52:16;;;;;;;19.75;13.73;;;14.90;43.10;;;;;;5074690;28;20032;-74
2021/04/25 11:54:47;;;;;;;12.88;8.93;;;14.80;43.10;;;;;;5075180;28;20107;-72
2021/04/25 11:57:21;;;;;;;6.53;4.18;;;14.70;43.40;;;;;;5075751;28;20601;-73
2021/04/25 12:00:08;;;;;;;7.70;4.53;;;14.70;43.90;;;;;;5074725;28;20059;-73
2021/04/25 12:02:51;;;;;;;8.45;4.88;;;14.70;44.50;;;;;;5075102;28;20059;-74
2021/04/25 12:05:29;;;;;;;6.00;4.30;;;14.70;43.50;;;;;;5075929;28;20025;-74
2021/04/25 12:07:56;;;;;;;7.78;4.20;;;14.60;43.40;;;;;;5074809;28;20025;-74
2021/04/25 12:10:26;;;;;;;6.07;4.60;;;14.50;43.40;;;;;;5073077;28;20028;-74
2021/04/25 12:12:57;;;;;;;6.55;4.30;;;14.30;43.50;;;;;;5076402;28;20024;-75
2021/04/25 12:15:25;;;;;;;8.05;4.20;;;14.20;44.00;;;;;;5075135;28;20037;-81
2021/04/25 12:17:59;;;;;;;6.70;3.95;;;14.10;44.10;;;;;;5074909;28;20073;-76
2021/04/25 12:20:26;;;;;;;8.93;5.30;;;13.90;44.70;;;;;;5076266;28;20025;-78
2021/04/25 12:22:52;;;;;;;10.80;7.25;;;13.70;46.20;;;;;;5076126;28;20104;-77
2021/04/25 12:25:20;;;;;;;10.73;7.70;;;13.60;47.40;;;;;;5075673;28;20136;-76
2021/04/25 12:27:57;;;;;;;5.05;3.80;;;13.40;49.60;;;;;;5058062;28;20032;-76
2021/04/25 12:30:26;;;;;;;7.47;4.70;;;13.20;49.30;;;;;;5074975;28;20566;-76
2021/04/25 12:33:10;;;;;;;7.60;4.68;;;13.10;49.50;;;;;;5074966;28;20036;-76
2021/04/25 12:35:44;;;;;;;6.03;3.97;;;13.20;50.10;;;;;;5076499;28;20551;-76
2021/04/25 12:38:18;;;;;;;6.47;4.30;;;13.50;50.90;;;;;;5075013;28;20368;-77
2021/04/25 12:40:52;;;;;;;6.88;4.18;;;13.40;49.50;;;;;;5074830;28;20028;-76
2021/04/25 12:43:18;;;;;;;7.30;3.92;;;13.80;50.30;;;;;;5058130;28;20025;-76
2021/04/25 12:45:46;;;;;;;13.38;7.47;;;14.00;50.40;;;;;;5074622;28;20029;-80
2021/04/25 12:48:29;;;;;;;5.85;4.28;;;13.90;49.10;;;;;;5076077;28;20020;-77
2021/04/25 12:51:11;;;;;;;5.20;4.00;;;14.00;50.30;;;;;;5058521;28;20044;-78
2021/04/25 12:54:05;;;;;;;7.13;4.35;;;14.20;48.90;;;;;;5074968;28;20104;-78
2021/04/25 12:56:40;;;;;;;5.20;3.85;;;14.30;49.30;;;;;;5074240;28;20082;-76
2021/04/25 12:59:16;;;;;;;6.93;4.55;;;14.80;49.20;;;;;;5075822;28;20024;-77